createdAt,value
2023-01-12T00:00:26.786Z,10.52
2023-01-12T00:02:53.528Z,9.98
2023-01-12T00:05:20.217Z,11.02
2023-01-12T00:07:46.881Z,10.38
2023-01-12T00:10:13.715Z,11.48
2023-01-12T00:12:40.414Z,11.60
2023-01-12T00:15:07.831Z,11.35
2023-01-12T00:17:34.496Z,11.13
2023-01-12T00:20:01.181Z,11.65
2023-01-12T00:22:27.833Z,11.65
2023-01-12T00:24:54.615Z,12.10
2023-01-12T00:27:22.132Z,12.00
2023-01-12T00:29:49.843Z,10.88
2023-01-12T00:32:19.390Z,11.50
2023-01-12T00:34:46.557Z,11.75
2023-01-12T00:37:14.000Z,11.85
2023-01-12T00:39:45.697Z,11.93
2023-01-12T00:42:15.878Z,11.70
2023-01-12T00:44:42.586Z,10.98
2023-01-12T00:47:10.224Z,10.95
2023-01-12T00:49:38.635Z,10.45
2023-01-12T00:52:06.494Z,10.20
2023-01-12T00:54:33.947Z,10.13
2023-01-12T00:57:01.561Z,9.27
2023-01-12T00:59:29.114Z,8.63
2023-01-12T01:01:56.268Z,8.52
2023-01-12T01:04:23.178Z,7.65
2023-01-12T01:06:50.154Z,8.48
2023-01-12T01:09:16.972Z,7.97
2023-01-12T01:11:43.638Z,7.10
2023-01-12T01:14:10.733Z,6.53
2023-01-12T01:16:37.377Z,6.30
2023-01-12T01:19:04.295Z,6.30
2023-01-12T01:21:31.181Z,6.13
2023-01-12T01:23:57.853Z,6.18
2023-01-12T01:26:24.824Z,5.88
2023-01-12T01:28:52.071Z,4.82
2023-01-12T01:31:23.827Z,5.32
2023-01-12T01:33:51.414Z,4.78
2023-01-12T01:36:19.101Z,5.40
2023-01-12T01:38:47.530Z,4.97
2023-01-12T01:41:26.667Z,5.20
2023-01-12T01:43:56.320Z,5.18
2023-01-12T01:46:47.197Z,5.30
2023-01-12T01:49:40.822Z,4.60
2023-01-12T01:52:19.361Z,5.47
2023-01-12T01:54:53.918Z,4.80
2023-01-12T01:57:22.951Z,4.30
2023-01-12T01:59:53.759Z,4.20
2023-01-12T02:02:20.834Z,4.38
2023-01-12T02:04:49.993Z,5.13
2023-01-12T02:07:16.757Z,4.07
2023-01-12T02:09:44.300Z,4.15
2023-01-12T02:12:11.202Z,4.05
2023-01-12T02:14:37.938Z,4.88
2023-01-12T02:17:22.377Z,4.50
2023-01-12T02:20:10.363Z,4.03
2023-01-12T02:22:52.349Z,4.47
2023-01-12T02:25:54.210Z,4.10
2023-01-12T02:28:42.370Z,3.97
2023-01-12T02:31:20.656Z,4.18
2023-01-12T02:34:17.785Z,4.57
2023-01-12T02:37:15.329Z,3.75
2023-01-12T02:40:01.945Z,4.20
2023-01-12T02:42:40.231Z,4.63
2023-01-12T02:45:51.305Z,3.72
2023-01-12T02:48:25.109Z,4.00
2023-01-12T02:51:29.844Z,4.22
2023-01-12T02:54:01.992Z,4.50
2023-01-12T02:56:39.869Z,3.92
2023-01-12T02:59:33.935Z,3.63
2023-01-12T03:02:08.444Z,3.50
2023-01-12T03:04:35.399Z,3.97
2023-01-12T03:07:02.002Z,4.40
2023-01-12T03:09:36.831Z,3.60
2023-01-12T03:12:17.859Z,3.63
2023-01-12T03:14:48.621Z,3.30
2023-01-12T03:17:30.835Z,3.65
2023-01-12T03:20:03.615Z,3.45
2023-01-12T03:22:31.681Z,3.70
2023-01-12T03:25:01.095Z,3.28
2023-01-12T03:27:34.072Z,3.05
2023-01-12T03:30:20.751Z,3.72
2023-01-12T03:32:48.701Z,3.78
2023-01-12T03:35:16.449Z,2.95
2023-01-12T03:37:58.208Z,3.63
2023-01-12T03:40:35.447Z,3.55
2023-01-12T03:43:07.465Z,3.20
2023-01-12T03:45:36.891Z,3.35
2023-01-12T03:48:26.612Z,3.40
2023-01-12T03:50:58.416Z,3.08
2023-01-12T03:53:25.257Z,3.20
2023-01-12T03:55:59.491Z,3.40
2023-01-12T03:58:26.404Z,3.92
2023-01-12T04:00:53.164Z,3.90
2023-01-12T04:03:19.958Z,3.83
2023-01-12T04:05:46.624Z,3.78
2023-01-12T04:08:15.327Z,3.53
2023-01-12T04:10:42.388Z,3.03
2023-01-12T04:13:09.053Z,3.13
2023-01-12T04:15:35.818Z,3.28
2023-01-12T04:18:02.515Z,3.55
2023-01-12T04:20:29.184Z,3.60
2023-01-12T04:22:55.878Z,3.10
2023-01-12T04:25:23.179Z,3.30
2023-01-12T04:27:55.640Z,3.17
2023-01-12T04:30:23.452Z,3.55
2023-01-12T04:32:50.763Z,3.63
2023-01-12T04:35:18.010Z,3.30
2023-01-12T04:37:45.200Z,3.33
2023-01-12T04:40:13.899Z,3.53
2023-01-12T04:43:01.295Z,3.28
2023-01-12T04:45:30.154Z,3.08
2023-01-12T04:48:00.366Z,3.45
2023-01-12T04:50:27.110Z,3.05
2023-01-12T04:52:53.792Z,3.65
2023-01-12T04:55:20.580Z,3.28
2023-01-12T04:57:47.263Z,3.35
2023-01-12T05:00:14.171Z,2.90
2023-01-12T05:02:40.877Z,3.22
2023-01-12T05:05:07.902Z,3.15
2023-01-12T05:07:34.652Z,3.20
2023-01-12T05:10:01.361Z,3.42
2023-01-12T05:12:28.016Z,2.85
2023-01-12T05:14:54.800Z,3.25
2023-01-12T05:17:21.494Z,3.20
2023-01-12T05:19:48.193Z,3.00
2023-01-12T05:22:15.171Z,3.72
2023-01-12T05:24:41.773Z,6.15
2023-01-12T05:27:08.610Z,3.45
2023-01-12T05:29:35.330Z,3.25
2023-01-12T05:32:02.048Z,3.20
2023-01-12T05:34:28.687Z,3.00
2023-01-12T05:36:55.428Z,3.83
2023-01-12T05:39:22.074Z,3.60
2023-01-12T05:41:48.865Z,3.83
2023-01-12T05:44:15.637Z,3.13
2023-01-12T05:46:42.291Z,3.40
2023-01-12T05:49:12.161Z,3.10
2023-01-12T05:51:38.849Z,3.53
2023-01-12T05:54:05.629Z,2.90
2023-01-12T05:56:32.297Z,3.60
2023-01-12T05:59:00.985Z,3.10
2023-01-12T06:01:29.184Z,3.55
2023-01-12T06:03:58.313Z,3.60
2023-01-12T06:06:26.554Z,3.28
2023-01-12T06:08:54.032Z,2.67
2023-01-12T06:11:21.403Z,2.78
2023-01-12T06:13:48.096Z,2.88
2023-01-12T06:16:14.818Z,3.15
2023-01-12T06:18:41.580Z,3.55
2023-01-12T06:21:09.597Z,3.60
2023-01-12T06:23:36.322Z,3.22
2023-01-12T06:26:05.014Z,3.30
2023-01-12T06:28:31.856Z,3.10
2023-01-12T06:31:01.434Z,3.47
2023-01-12T06:33:28.507Z,3.30
2023-01-12T06:35:55.736Z,3.40
2023-01-12T06:38:24.664Z,2.83
2023-01-12T06:40:51.716Z,3.42
2023-01-12T06:43:18.774Z,3.42
2023-01-12T06:45:45.969Z,3.03
2023-01-12T06:48:12.635Z,3.67
2023-01-12T06:50:39.500Z,3.10
2023-01-12T06:53:06.541Z,3.30
2023-01-12T06:55:33.355Z,2.72
2023-01-12T06:58:03.722Z,3.45
2023-01-12T07:00:31.492Z,3.65
2023-01-12T07:02:58.719Z,3.83
2023-01-12T07:05:25.903Z,3.17
2023-01-12T07:07:58.404Z,3.47
2023-01-12T07:10:25.172Z,3.67
2023-01-12T07:12:51.864Z,3.50
2023-01-12T07:15:18.641Z,3.05
2023-01-12T07:17:45.394Z,3.05
2023-01-12T07:20:12.296Z,3.38
2023-01-12T07:22:38.970Z,3.50
2023-01-12T07:25:06.080Z,3.00
2023-01-12T07:27:32.786Z,3.28
2023-01-12T07:29:59.472Z,3.30
2023-01-12T07:32:26.713Z,3.00
2023-01-12T07:34:53.456Z,4.15
2023-01-12T07:37:20.202Z,3.85
2023-01-12T07:39:46.867Z,4.70
2023-01-12T07:42:13.524Z,4.68
2023-01-12T07:44:40.324Z,4.60
2023-01-12T07:47:07.030Z,4.50
2023-01-12T07:49:33.736Z,4.22
2023-01-12T07:52:00.499Z,3.80
2023-01-12T07:54:27.245Z,4.10
2023-01-12T07:56:55.097Z,4.05
2023-01-12T07:59:21.801Z,9.95
2023-01-12T08:01:48.542Z,5.72
2023-01-12T08:04:15.661Z,4.38
2023-01-12T08:06:47.176Z,7.35
2023-01-12T08:09:14.307Z,5.07
2023-01-12T08:11:41.049Z,4.88
2023-01-12T08:14:07.836Z,6.00
2023-01-12T08:16:45.684Z,7.72
2023-01-12T08:19:18.474Z,6.32
2023-01-12T08:21:50.343Z,4.85
2023-01-12T08:24:22.348Z,4.57
2023-01-12T08:26:54.152Z,4.50
2023-01-12T08:29:29.304Z,5.22
2023-01-12T08:32:04.879Z,4.47
2023-01-12T08:34:33.423Z,5.68
2023-01-12T08:37:04.159Z,4.10
2023-01-12T08:39:30.989Z,4.00
2023-01-12T08:41:57.654Z,3.55
2023-01-12T08:44:24.363Z,2.90
2023-01-12T08:46:53.350Z,3.00
2023-01-12T08:49:24.409Z,3.85
2023-01-12T08:51:51.537Z,3.42
2023-01-12T08:54:19.739Z,3.60
2023-01-12T08:56:46.556Z,3.40
2023-01-12T08:59:13.594Z,4.53
2023-01-12T09:01:40.525Z,7.43
2023-01-12T09:04:07.408Z,4.07
2023-01-12T09:06:41.685Z,2.88
2023-01-12T09:09:11.763Z,3.47
2023-01-12T09:11:40.265Z,4.00
2023-01-12T09:14:07.245Z,3.10
2023-01-12T09:16:34.222Z,3.30
2023-01-12T09:19:01.271Z,3.08
2023-01-12T09:21:29.511Z,2.63
2023-01-12T09:23:57.243Z,3.05
2023-01-12T09:26:27.340Z,2.85
2023-01-12T09:28:54.336Z,2.80
2023-01-12T09:31:22.501Z,3.00
2023-01-12T09:33:49.626Z,3.38
2023-01-12T09:36:18.851Z,2.70
2023-01-12T09:38:47.380Z,3.10
2023-01-12T09:41:36.872Z,2.80
2023-01-12T09:44:03.728Z,3.15
2023-01-12T09:46:32.080Z,3.17
2023-01-12T09:48:59.400Z,3.72
2023-01-12T09:51:34.648Z,3.30
2023-01-12T09:54:02.186Z,2.90
2023-01-12T09:56:40.549Z,2.83
2023-01-12T09:59:34.439Z,3.25
2023-01-12T10:02:01.218Z,2.78
2023-01-12T10:04:28.218Z,3.50
2023-01-12T10:06:55.045Z,3.65
2023-01-12T10:09:23.073Z,5.95
2023-01-12T10:12:38.068Z,3.00
2023-01-12T10:15:25.457Z,3.25
2023-01-12T10:18:19.739Z,3.40
2023-01-12T10:20:46.510Z,2.95
2023-01-12T10:23:16.802Z,2.78
2023-01-12T10:25:49.792Z,2.88
2023-01-12T10:28:26.353Z,3.95
2023-01-12T10:30:56.254Z,3.25
2023-01-12T10:33:29.147Z,3.75
2023-01-12T10:36:18.057Z,3.15
2023-01-12T10:38:56.687Z,2.90
2023-01-12T10:41:26.494Z,2.95
2023-01-12T10:43:59.794Z,2.92
2023-01-12T10:46:27.689Z,2.65
2023-01-12T10:49:12.871Z,3.20
2023-01-12T10:51:48.870Z,3.10
2023-01-12T10:54:19.720Z,2.88
2023-01-12T10:57:06.853Z,3.17
2023-01-12T10:59:37.681Z,2.92
2023-01-12T11:02:07.855Z,3.10
2023-01-12T11:04:45.378Z,2.90
2023-01-12T11:07:20.635Z,2.92
2023-01-12T11:09:48.317Z,2.60
2023-01-12T11:12:21.140Z,2.78
2023-01-12T11:15:06.629Z,3.25
2023-01-12T11:17:39.430Z,3.03
2023-01-12T11:20:21.380Z,2.90
2023-01-12T11:22:52.472Z,2.70
2023-01-12T11:25:25.381Z,3.30
2023-01-12T11:28:33.305Z,3.25
2023-01-12T11:31:18.592Z,4.07
2023-01-12T11:33:49.551Z,3.17
2023-01-12T11:36:28.902Z,2.70
2023-01-12T11:39:08.329Z,3.33
2023-01-12T11:41:41.065Z,2.65
2023-01-12T11:44:23.525Z,2.72
2023-01-12T11:47:20.900Z,3.15
2023-01-12T11:49:58.099Z,2.70
2023-01-12T11:52:27.028Z,3.03
2023-01-12T11:54:54.099Z,2.90
2023-01-12T11:57:43.957Z,2.60
2023-01-12T12:00:36.766Z,2.72
2023-01-12T12:03:40.663Z,2.58
2023-01-12T12:06:40.929Z,2.70
2023-01-12T12:09:10.741Z,2.80
2023-01-12T12:11:59.127Z,3.03
2023-01-12T12:14:57.601Z,3.47
2023-01-12T12:17:36.113Z,2.25
2023-01-12T12:20:21.849Z,2.47
2023-01-12T12:22:51.908Z,2.55
2023-01-12T12:25:55.646Z,2.13
2023-01-12T12:29:01.528Z,2.20
2023-01-12T12:32:08.784Z,2.20
2023-01-12T12:34:41.975Z,2.25
2023-01-12T12:37:46.672Z,2.53
2023-01-12T12:40:32.262Z,1.70
2023-01-12T12:43:16.993Z,2.40
2023-01-12T12:46:00.323Z,1.90
2023-01-12T12:48:39.159Z,1.70
2023-01-12T12:51:09.083Z,1.55
2023-01-12T12:53:45.849Z,1.60
2023-01-12T12:56:15.759Z,1.80
2023-01-12T12:58:42.423Z,1.98
2023-01-12T13:01:21.625Z,1.63
2023-01-12T13:03:55.245Z,1.70
2023-01-12T13:06:34.260Z,1.50
2023-01-12T13:09:11.498Z,1.40
2023-01-12T13:11:52.994Z,2.00
2023-01-12T13:14:23.149Z,1.95
2023-01-12T13:16:52.121Z,1.50
2023-01-12T13:19:39.077Z,1.50
2023-01-12T13:22:30.309Z,1.55
2023-01-12T13:25:15.432Z,1.58
2023-01-12T13:27:50.254Z,1.20
2023-01-12T13:30:29.365Z,1.75
2023-01-12T13:33:21.951Z,2.05
2023-01-12T13:35:48.721Z,1.30
2023-01-12T13:38:39.492Z,1.30
2023-01-12T13:41:15.370Z,1.55
2023-01-12T13:43:52.041Z,1.60
2023-01-12T13:46:24.172Z,1.83
2023-01-12T13:48:55.878Z,1.52
2023-01-12T13:51:32.671Z,1.30
2023-01-12T13:54:04.077Z,1.10
2023-01-12T13:56:31.931Z,1.20
2023-01-12T13:59:01.733Z,1.38
2023-01-12T14:01:38.510Z,1.30
2023-01-12T14:04:14.216Z,1.30
2023-01-12T14:09:26.425Z,1.10
2023-01-12T14:12:12.935Z,1.63
2023-01-12T14:15:14.981Z,1.40
2023-01-12T14:17:42.525Z,1.00
2023-01-12T14:20:15.625Z,1.30
2023-01-12T14:22:43.378Z,1.23
2023-01-12T14:25:21.986Z,1.17
2023-01-12T14:27:53.638Z,1.10
2023-01-12T14:30:22.963Z,0.85
2023-01-12T14:32:50.482Z,1.00
2023-01-12T14:35:23.756Z,1.20
2023-01-12T14:37:59.479Z,1.25
2023-01-12T14:42:55.938Z,1.00
2023-01-12T14:45:27.418Z,1.30
2023-01-12T14:47:54.160Z,1.00
2023-01-12T14:50:22.293Z,1.40
2023-01-12T14:52:49.349Z,0.95
2023-01-12T14:55:24.705Z,0.98
2023-01-12T14:57:55.529Z,0.90
2023-01-12T15:00:30.610Z,1.00
2023-01-12T15:03:01.650Z,0.90
2023-01-12T15:05:30.663Z,1.00
2023-01-12T15:08:03.622Z,1.25
2023-01-12T15:10:40.609Z,0.88
2023-01-12T15:13:27.689Z,0.98
2023-01-12T15:15:55.774Z,1.35
2023-01-12T15:18:22.734Z,0.95
2023-01-12T15:20:49.455Z,1.50
2023-01-12T15:23:16.186Z,1.10
2023-01-12T15:25:43.000Z,1.20
2023-01-12T15:28:09.771Z,1.55
2023-01-12T15:30:38.615Z,1.40
2023-01-12T15:33:06.281Z,1.48
2023-01-12T15:35:33.002Z,1.50
2023-01-12T15:37:59.949Z,1.75
2023-01-12T15:40:27.938Z,1.60
2023-01-12T15:42:54.788Z,1.75
2023-01-12T15:45:53.856Z,1.48
2023-01-12T15:48:20.690Z,1.25
2023-01-12T15:50:47.795Z,1.40
2023-01-12T15:53:20.236Z,1.70
2023-01-12T15:55:48.083Z,1.75
2023-01-12T15:58:15.339Z,1.55
2023-01-12T16:00:43.975Z,1.67
2023-01-12T16:03:38.205Z,1.50
2023-01-12T16:06:01.228Z,2.00
2023-01-12T16:08:28.232Z,1.67
2023-01-12T16:10:54.981Z,1.80
2023-01-12T16:13:21.916Z,1.95
2023-01-12T16:15:48.685Z,1.38
2023-01-12T16:18:15.463Z,1.98
2023-01-12T16:20:42.223Z,2.05
2023-01-12T16:23:10.055Z,1.60
2023-01-12T16:25:38.290Z,1.60
2023-01-12T16:28:05.413Z,1.60
2023-01-12T16:30:32.778Z,1.80
2023-01-12T16:33:02.635Z,1.65
2023-01-12T16:35:29.418Z,2.30
2023-01-12T16:37:56.224Z,1.48
2023-01-12T16:40:23.166Z,1.50
2023-01-12T16:42:49.983Z,1.42
2023-01-12T16:45:16.807Z,1.23
2023-01-12T16:47:43.880Z,1.00
2023-01-12T16:50:20.850Z,1.10
2023-01-12T16:52:47.682Z,1.35
2023-01-12T16:55:14.611Z,1.50
2023-01-12T16:57:42.132Z,1.23
2023-01-12T17:00:10.308Z,1.20
2023-01-12T17:02:37.468Z,1.83
2023-01-12T17:05:04.877Z,0.80
2023-01-12T17:07:32.133Z,1.63
2023-01-12T17:09:59.134Z,1.55
2023-01-12T17:12:26.070Z,2.25
2023-01-12T17:14:52.911Z,2.50
2023-01-12T17:17:19.783Z,1.92
2023-01-12T17:19:46.665Z,1.75
2023-01-12T17:22:13.949Z,1.58
2023-01-12T17:24:40.976Z,1.85
2023-01-12T17:27:10.018Z,1.40
2023-01-12T17:29:37.473Z,2.10
2023-01-12T17:32:06.220Z,1.30
2023-01-12T17:34:36.279Z,1.27
2023-01-12T17:37:03.211Z,1.70
2023-01-12T17:39:31.138Z,1.65
2023-01-12T17:41:58.055Z,1.60
2023-01-12T17:44:24.928Z,1.90
2023-01-12T17:46:51.735Z,1.83
2023-01-12T17:49:20.086Z,2.20
2023-01-12T17:51:47.043Z,1.67
2023-01-12T17:54:14.421Z,1.52
2023-01-12T17:56:41.816Z,1.55
2023-01-12T17:59:13.171Z,1.90
2023-01-12T18:01:42.411Z,1.48
2023-01-12T18:04:09.416Z,1.45
2023-01-12T18:06:36.462Z,1.40
2023-01-12T18:09:04.234Z,1.70
2023-01-12T18:11:31.563Z,1.70
2023-01-12T18:13:59.657Z,1.25
2023-01-12T18:16:26.432Z,1.65
2023-01-12T18:18:53.605Z,2.03
2023-01-12T18:21:23.018Z,1.13
2023-01-12T18:23:51.092Z,1.95
2023-01-12T18:26:27.276Z,1.65
2023-01-12T18:28:55.221Z,2.22
2023-01-12T18:31:25.521Z,2.10
2023-01-12T18:33:56.348Z,1.50
2023-01-12T18:36:25.168Z,2.10
2023-01-12T18:38:52.842Z,1.60
2023-01-12T18:41:20.477Z,2.00
2023-01-12T18:43:47.522Z,1.70
2023-01-12T18:46:14.317Z,1.30
2023-01-12T18:48:44.433Z,1.45
2023-01-12T18:51:11.885Z,1.85
2023-01-12T18:53:40.477Z,1.60
2023-01-12T18:56:08.085Z,1.88
2023-01-12T18:58:35.624Z,1.77
2023-01-12T19:01:04.365Z,1.40
2023-01-12T19:03:31.503Z,1.60
2023-01-12T19:05:58.421Z,1.70
2023-01-12T19:08:27.856Z,1.48
2023-01-12T19:10:55.757Z,1.13
2023-01-12T19:13:22.512Z,1.60
2023-01-12T19:15:49.249Z,1.17
2023-01-12T19:18:16.021Z,1.42
2023-01-12T19:20:42.779Z,1.85
2023-01-12T19:23:11.620Z,1.40
2023-01-12T19:25:38.561Z,1.45
2023-01-12T19:28:06.569Z,1.60
2023-01-12T19:30:33.432Z,1.60
2023-01-12T19:33:01.538Z,3.50
2023-01-12T19:35:28.253Z,1.85
2023-01-12T19:37:55.011Z,2.00
2023-01-12T19:40:21.822Z,1.73
2023-01-12T19:42:48.570Z,1.70
2023-01-12T19:45:15.479Z,0.90
2023-01-12T19:47:42.343Z,1.40
2023-01-12T19:50:11.713Z,1.65
2023-01-12T19:52:39.979Z,1.15
2023-01-12T19:55:09.177Z,1.13
2023-01-12T19:57:37.159Z,0.95
2023-01-12T20:00:06.639Z,1.17
2023-01-12T20:02:33.794Z,1.15
2023-01-12T20:05:00.545Z,0.93
2023-01-12T20:07:27.443Z,1.00
2023-01-12T20:09:54.152Z,0.93
2023-01-12T20:12:20.930Z,1.30
2023-01-12T20:14:47.719Z,1.25
2023-01-12T20:17:14.576Z,1.50
2023-01-12T20:19:41.376Z,1.30
2023-01-12T20:22:08.334Z,1.10
2023-01-12T20:24:35.132Z,1.33
2023-01-12T20:27:01.946Z,1.50
2023-01-12T20:29:28.957Z,1.10
2023-01-12T20:31:55.819Z,1.20
2023-01-12T20:34:22.581Z,1.10
2023-01-12T20:36:49.486Z,1.90
2023-01-12T20:39:16.548Z,1.50
2023-01-12T20:41:43.575Z,1.10
2023-01-12T20:44:15.518Z,1.52
2023-01-12T20:46:42.924Z,1.40
2023-01-12T20:49:10.484Z,1.50
2023-01-12T20:51:37.239Z,1.10
2023-01-12T20:54:05.580Z,1.23
2023-01-12T20:56:32.583Z,1.38
2023-01-12T20:59:00.006Z,1.73
2023-01-12T21:01:27.250Z,1.10
2023-01-12T21:03:54.202Z,1.40
2023-01-12T21:06:21.002Z,1.25
2023-01-12T21:08:48.194Z,1.80
2023-01-12T21:11:19.745Z,1.90
2023-01-12T21:13:47.024Z,1.33
2023-01-12T21:16:17.400Z,1.95
2023-01-12T21:18:44.277Z,1.60
2023-01-12T21:21:11.749Z,1.30
2023-01-12T21:23:38.543Z,1.42
2023-01-12T21:26:05.425Z,1.80
2023-01-12T21:28:32.173Z,1.40
2023-01-12T21:31:03.074Z,1.55
2023-01-12T21:33:30.482Z,1.50
2023-01-12T21:35:58.497Z,1.90
2023-01-12T21:38:26.309Z,1.70
2023-01-12T21:40:53.430Z,1.52
2023-01-12T21:43:20.137Z,1.50
2023-01-12T21:45:53.762Z,1.63
2023-01-12T21:48:22.593Z,1.50
2023-01-12T21:50:49.837Z,1.48
2023-01-12T21:53:19.662Z,1.38
2023-01-12T21:55:54.892Z,1.63
2023-01-12T21:58:22.760Z,1.88
2023-01-12T22:00:49.678Z,1.20
2023-01-12T22:03:16.589Z,1.67
2023-01-12T22:05:43.520Z,1.20
2023-01-12T22:08:11.141Z,1.83
2023-01-12T22:10:38.083Z,1.20
2023-01-12T22:13:04.893Z,1.77
2023-01-12T22:15:32.587Z,1.70
2023-01-12T22:17:59.895Z,1.42
2023-01-12T22:20:26.775Z,1.80
2023-01-12T22:22:54.070Z,1.92
2023-01-12T22:25:25.473Z,1.90
2023-01-12T22:27:54.370Z,1.90
2023-01-12T22:30:23.283Z,2.03
2023-01-12T22:32:53.747Z,1.60
2023-01-12T22:35:20.554Z,1.27
2023-01-12T22:37:47.439Z,1.70
2023-01-12T22:40:14.785Z,1.20
2023-01-12T22:42:41.697Z,1.60
2023-01-12T22:45:09.209Z,1.33
2023-01-12T22:47:47.612Z,1.40
2023-01-12T22:50:15.261Z,1.70
2023-01-12T22:52:42.172Z,1.10
2023-01-12T22:55:09.476Z,1.30
2023-01-12T22:57:36.198Z,1.40
2023-01-12T23:00:03.971Z,1.38
2023-01-12T23:02:30.859Z,1.30
2023-01-12T23:04:57.863Z,1.40
2023-01-12T23:07:24.699Z,1.90
2023-01-12T23:09:51.461Z,1.52
2023-01-12T23:12:18.675Z,1.20
2023-01-12T23:14:45.610Z,1.50
2023-01-12T23:17:12.384Z,1.58
2023-01-12T23:19:39.879Z,1.27
2023-01-12T23:22:06.918Z,1.17
2023-01-12T23:24:33.941Z,1.15
2023-01-12T23:27:00.809Z,1.00
2023-01-12T23:29:30.343Z,1.20
2023-01-12T23:31:57.146Z,1.30
2023-01-12T23:34:24.150Z,1.20
2023-01-12T23:36:51.049Z,0.88
2023-01-12T23:39:17.863Z,1.10
2023-01-12T23:41:44.752Z,1.38
2023-01-12T23:44:11.574Z,1.10
2023-01-12T23:46:40.242Z,1.10
2023-01-12T23:49:07.075Z,1.40
2023-01-12T23:51:33.913Z,1.05
2023-01-12T23:54:02.013Z,1.10
2023-01-12T23:56:31.583Z,1.17
2023-01-12T23:58:58.618Z,0.70
